createdAt,value
2018-05-03T00:00:54.930Z,12.86
2018-05-03T00:03:23.194Z,12.69
2018-05-03T00:05:51.476Z,12.86
2018-05-03T00:08:19.725Z,12.91
2018-05-03T00:10:48.753Z,12.97
2018-05-03T00:13:17.330Z,12.95
2018-05-03T00:15:45.614Z,12.96
2018-05-03T00:18:14.129Z,12.85
2018-05-03T00:20:42.340Z,12.95
2018-05-03T00:23:10.617Z,12.83
2018-05-03T00:25:39.001Z,12.72
2018-05-03T00:28:07.269Z,12.78
2018-05-03T00:30:35.570Z,12.68
2018-05-03T00:33:03.876Z,12.81
2018-05-03T00:35:32.125Z,12.68
2018-05-03T00:38:00.400Z,12.87
2018-05-03T00:40:28.691Z,12.97
2018-05-03T00:42:56.942Z,12.87
2018-05-03T00:45:25.217Z,12.88
2018-05-03T00:47:53.486Z,12.81
2018-05-03T00:50:21.781Z,12.90
2018-05-03T00:52:50.050Z,12.97
2018-05-03T00:55:18.807Z,12.98
2018-05-03T00:57:47.080Z,13.05
2018-05-03T01:00:15.375Z,12.99
2018-05-03T01:02:43.644Z,12.88
2018-05-03T01:05:11.946Z,12.77
2018-05-03T01:07:40.199Z,12.78
2018-05-03T01:10:08.475Z,12.91
2018-05-03T01:12:36.740Z,12.76
2018-05-03T01:15:05.034Z,12.82
2018-05-03T01:17:33.306Z,12.57
2018-05-03T01:20:01.575Z,12.42
2018-05-03T01:22:29.857Z,12.42
2018-05-03T01:24:58.221Z,12.57
2018-05-03T01:27:26.506Z,12.63
2018-05-03T01:29:54.778Z,12.69
2018-05-03T01:32:23.061Z,12.71
2018-05-03T01:38:08.446Z,12.76
2018-05-03T01:40:36.717Z,12.75
2018-05-03T01:43:04.996Z,12.84
2018-05-03T01:45:33.265Z,12.72
2018-05-03T01:48:01.512Z,12.76
2018-05-03T01:50:29.794Z,12.72
2018-05-03T01:52:58.081Z,12.66
2018-05-03T01:55:26.336Z,12.66
2018-05-03T01:57:55.385Z,12.72
2018-05-03T02:00:23.805Z,12.63
2018-05-03T02:02:52.847Z,12.67
2018-05-03T02:05:21.115Z,12.74
2018-05-03T02:07:49.383Z,12.54
2018-05-03T02:10:17.649Z,12.49
2018-05-03T02:12:46.121Z,12.42
2018-05-03T02:15:14.426Z,12.34
2018-05-03T02:17:42.714Z,12.29
2018-05-03T02:20:10.977Z,12.40
2018-05-03T02:22:39.243Z,12.50
2018-05-03T02:25:07.497Z,12.47
2018-05-03T02:27:35.765Z,12.53
2018-05-03T02:30:04.046Z,12.32
2018-05-03T02:32:32.344Z,12.33
2018-05-03T02:35:00.623Z,12.31
2018-05-03T02:37:28.871Z,12.24
2018-05-03T02:39:57.138Z,12.22
2018-05-03T02:42:25.453Z,12.39
2018-05-03T02:44:53.786Z,12.45
2018-05-03T02:47:22.066Z,12.30
2018-05-03T02:49:50.343Z,12.28
2018-05-03T02:52:18.613Z,12.40
2018-05-03T02:54:46.897Z,12.30
2018-05-03T02:57:32.902Z,11.87
2018-05-03T03:00:24.858Z,11.79
2018-05-03T03:03:16.247Z,12.10
2018-05-03T03:06:08.108Z,12.23
2018-05-03T03:12:32.358Z,12.11
2018-05-03T03:15:23.678Z,12.07
2018-05-03T03:18:10.923Z,11.99
2018-05-03T03:21:04.370Z,12.01
2018-05-03T03:23:56.130Z,12.09
2018-05-03T03:33:34.573Z,12.10
2018-05-03T03:36:20.495Z,12.10
2018-05-03T03:39:06.348Z,12.01
2018-05-03T03:41:40.227Z,12.07
2018-05-03T03:44:26.416Z,12.15
2018-05-03T03:46:54.685Z,12.20
2018-05-03T03:49:23.810Z,12.21
2018-05-03T03:51:52.063Z,12.01
2018-05-03T03:54:20.356Z,11.83
2018-05-03T03:56:48.607Z,11.98
2018-05-03T03:59:17.641Z,12.18
2018-05-03T04:01:45.882Z,12.13
2018-05-03T04:04:14.162Z,12.17
2018-05-03T04:06:42.442Z,12.17
2018-05-03T04:09:10.731Z,12.22
2018-05-03T04:11:39.004Z,12.05
2018-05-03T04:14:07.256Z,12.01
2018-05-03T04:16:35.880Z,11.98
2018-05-03T04:19:21.929Z,12.07
2018-05-03T04:25:19.983Z,12.12
2018-05-03T04:27:48.340Z,11.90
2018-05-03T04:30:16.705Z,12.03
2018-05-03T04:32:44.961Z,11.97
2018-05-03T04:35:13.225Z,11.98
2018-05-03T04:37:41.491Z,12.02
2018-05-03T04:40:10.505Z,12.05
2018-05-03T04:42:38.914Z,12.14
2018-05-03T04:45:07.269Z,12.19
2018-05-03T04:47:35.541Z,12.14
2018-05-03T04:50:03.841Z,12.21
2018-05-03T04:52:32.100Z,12.08
2018-05-03T04:55:00.391Z,12.23
2018-05-03T04:57:29.128Z,12.33
2018-05-03T04:59:58.171Z,12.34
2018-05-03T05:02:26.430Z,12.51
2018-05-03T05:04:54.705Z,12.48
2018-05-03T05:07:22.978Z,12.66
2018-05-03T05:09:51.240Z,12.45
2018-05-03T05:12:19.513Z,12.60
2018-05-03T05:14:47.784Z,12.72
2018-05-03T05:17:16.029Z,12.73
2018-05-03T05:19:45.071Z,12.61
2018-05-03T05:22:13.487Z,12.75
2018-05-03T05:24:41.967Z,12.79
2018-05-03T05:27:10.218Z,12.68
2018-05-03T05:29:38.572Z,12.63
2018-05-03T05:32:06.871Z,12.67
2018-05-03T05:34:35.223Z,12.74
2018-05-03T05:37:03.540Z,12.56
2018-05-03T05:39:31.796Z,12.45
2018-05-03T05:42:00.063Z,12.43
2018-05-03T05:44:28.336Z,12.54
2018-05-03T05:46:56.621Z,12.63
2018-05-03T05:49:24.904Z,12.69
2018-05-03T05:51:53.189Z,12.95
2018-05-03T05:54:21.435Z,13.09
2018-05-03T05:56:49.681Z,12.98
2018-05-03T05:59:17.971Z,13.08
2018-05-03T06:01:46.244Z,13.16
2018-05-03T06:04:14.570Z,13.03
2018-05-03T06:06:42.909Z,13.18
2018-05-03T06:09:11.189Z,13.08
2018-05-03T06:11:39.511Z,13.27
2018-05-03T06:14:07.799Z,13.26
2018-05-03T06:16:36.850Z,13.31
2018-05-03T06:19:05.130Z,13.26
2018-05-03T06:21:33.404Z,13.28
2018-05-03T06:24:01.655Z,13.27
2018-05-03T06:26:30.140Z,13.28
2018-05-03T06:28:58.391Z,13.20
2018-05-03T06:31:26.768Z,13.20
2018-05-03T06:33:55.064Z,13.28
2018-05-03T06:36:23.341Z,13.30
2018-05-03T06:38:51.652Z,13.49
2018-05-03T06:41:19.921Z,13.42
2018-05-03T06:43:48.364Z,13.69
2018-05-03T06:46:16.673Z,13.83
2018-05-03T06:48:45.136Z,13.91
2018-05-03T06:51:13.381Z,13.86
2018-05-03T06:53:41.685Z,13.90
2018-05-03T06:56:09.952Z,14.05
2018-05-03T06:58:38.491Z,14.12
2018-05-03T07:01:06.671Z,14.13
2018-05-03T07:03:34.961Z,14.33
2018-05-03T07:06:03.218Z,14.31
2018-05-03T07:08:32.262Z,14.41
2018-05-03T07:11:00.539Z,14.47
2018-05-03T07:13:28.816Z,14.42
2018-05-03T07:15:57.069Z,14.46
2018-05-03T07:18:25.358Z,14.39
2018-05-03T07:20:53.732Z,14.22
2018-05-03T07:23:22.051Z,14.29
2018-05-03T07:25:50.441Z,14.38
2018-05-03T07:28:19.493Z,14.32
2018-05-03T07:30:47.768Z,14.38
2018-05-03T07:33:16.131Z,14.41
2018-05-03T07:35:44.415Z,14.58
2018-05-03T07:38:12.673Z,14.65
2018-05-03T07:40:41.050Z,14.68
2018-05-03T07:43:09.261Z,14.46
2018-05-03T07:45:37.564Z,14.44
2018-05-03T07:48:06.584Z,14.48
2018-05-03T07:50:34.871Z,14.58
2018-05-03T07:53:03.135Z,14.59
2018-05-03T07:55:31.397Z,14.74
2018-05-03T07:57:59.684Z,14.99
2018-05-03T08:00:28.119Z,15.00
2018-05-03T08:02:56.384Z,14.95
2018-05-03T08:05:24.683Z,15.13
2018-05-03T08:07:53.980Z,15.14
2018-05-03T08:10:23.073Z,15.08
2018-05-03T08:12:52.128Z,14.92
2018-05-03T08:15:20.396Z,15.16
2018-05-03T08:17:48.718Z,14.92
2018-05-03T08:20:17.793Z,14.99
2018-05-03T08:22:46.078Z,15.08
2018-05-03T08:27:48.821Z,15.28
2018-05-03T08:30:17.138Z,15.47
2018-05-03T08:32:45.396Z,15.40
2018-05-03T08:35:13.710Z,15.41
2018-05-03T08:37:42.001Z,15.22
2018-05-03T08:40:10.313Z,15.72
2018-05-03T08:42:38.607Z,15.73
2018-05-03T08:45:06.907Z,15.84
2018-05-03T08:47:35.949Z,15.99
2018-05-03T08:50:04.262Z,16.22
2018-05-03T08:52:32.534Z,16.55
2018-05-03T08:55:01.723Z,16.41
2018-05-03T08:57:30.355Z,16.61
2018-05-03T08:59:58.635Z,16.70
2018-05-03T09:02:26.924Z,16.81
2018-05-03T09:04:55.205Z,16.78
2018-05-03T09:07:23.498Z,17.01
2018-05-03T09:09:51.788Z,16.85
2018-05-03T09:12:20.076Z,17.29
2018-05-03T09:14:49.420Z,17.53
2018-05-03T09:17:17.724Z,17.63
2018-05-03T09:19:46.060Z,17.51
2018-05-03T09:22:14.381Z,17.53
2018-05-03T09:24:42.704Z,17.70
2018-05-03T09:27:10.974Z,17.31
2018-05-03T09:29:40.006Z,17.63
2018-05-03T09:32:08.309Z,17.77
2018-05-03T09:34:36.614Z,17.76
2018-05-03T09:37:04.930Z,18.15
2018-05-03T09:39:33.197Z,18.09
2018-05-03T09:42:01.734Z,18.20
2018-05-03T09:44:30.111Z,18.71
2018-05-03T09:46:59.247Z,19.01
2018-05-03T09:49:27.571Z,19.09
2018-05-03T09:51:55.807Z,19.06
2018-05-03T09:54:24.078Z,18.78
2018-05-03T09:56:52.360Z,18.82
2018-05-03T09:59:20.658Z,19.12
2018-05-03T10:01:48.918Z,18.94
2018-05-03T10:04:17.203Z,18.96
2018-05-03T10:06:45.558Z,18.77
2018-05-03T10:09:13.834Z,18.87
2018-05-03T10:11:42.125Z,18.68
2018-05-03T10:14:10.515Z,18.36
2018-05-03T10:16:38.861Z,18.49
2018-05-03T10:19:07.648Z,18.83
2018-05-03T10:21:36.084Z,18.91
2018-05-03T10:24:05.498Z,19.43
2018-05-03T10:26:33.778Z,19.52
2018-05-03T10:29:02.061Z,19.66
2018-05-03T10:31:30.327Z,19.85
2018-05-03T10:33:58.606Z,20.56
2018-05-03T10:36:26.886Z,20.53
2018-05-03T10:38:55.183Z,19.45
2018-05-03T10:41:23.485Z,19.48
2018-05-03T10:43:51.754Z,20.49
2018-05-03T10:46:20.029Z,20.97
2018-05-03T10:48:48.368Z,21.80
2018-05-03T10:51:16.595Z,21.38
2018-05-03T10:53:44.893Z,21.29
2018-05-03T10:56:13.924Z,22.51
2018-05-03T10:58:42.207Z,22.12
2018-05-03T11:01:10.641Z,21.49
2018-05-03T11:03:39.750Z,22.13
2018-05-03T11:06:08.168Z,21.84
2018-05-03T11:08:36.498Z,21.78
2018-05-03T11:11:04.949Z,21.31
2018-05-03T11:13:33.916Z,21.30
2018-05-03T11:16:02.261Z,22.15
2018-05-03T11:18:30.518Z,23.06
2018-05-03T11:20:59.572Z,23.55
2018-05-03T11:23:27.829Z,23.49
2018-05-03T11:25:56.148Z,23.57
2018-05-03T11:28:24.374Z,24.10
2018-05-03T11:30:52.763Z,24.62
2018-05-03T11:33:21.030Z,25.01
2018-05-03T11:35:49.363Z,25.12
2018-05-03T11:38:17.682Z,24.79
2018-05-03T11:40:45.977Z,24.99
2018-05-03T11:43:14.539Z,24.68
2018-05-03T11:45:42.907Z,25.27
2018-05-03T11:48:11.235Z,24.57
2018-05-03T11:50:39.797Z,25.83
2018-05-03T11:53:08.283Z,25.50
2018-05-03T11:55:36.592Z,25.68
2018-05-03T11:58:05.752Z,25.78
2018-05-03T12:00:34.021Z,25.93
2018-05-03T12:03:02.298Z,25.40
2018-05-03T12:05:30.561Z,25.46
2018-05-03T12:07:58.836Z,25.61
2018-05-03T12:10:27.128Z,25.93
2018-05-03T12:12:55.428Z,26.14
2018-05-03T12:15:23.725Z,26.11
2018-05-03T12:17:52.029Z,25.89
2018-05-03T12:20:20.289Z,26.73
2018-05-03T12:22:48.550Z,26.20
2018-05-03T12:25:17.286Z,26.37
2018-05-03T12:27:45.564Z,26.25
2018-05-03T12:30:15.497Z,26.24
2018-05-03T12:32:44.535Z,26.22
2018-05-03T12:35:12.839Z,26.18
2018-05-03T12:37:41.141Z,26.21
2018-05-03T12:40:09.433Z,26.12
2018-05-03T12:42:38.491Z,24.40
2018-05-03T12:45:06.824Z,24.39
2018-05-03T12:47:35.069Z,24.40
2018-05-03T12:50:09.108Z,23.27
2018-05-03T12:52:37.394Z,23.90
2018-05-03T12:55:05.681Z,22.61
2018-05-03T12:57:33.945Z,22.68
2018-05-03T13:00:02.208Z,22.83
2018-05-03T13:02:30.484Z,22.94
2018-05-03T13:04:58.745Z,22.59
2018-05-03T13:07:27.025Z,21.06
2018-05-03T13:09:55.346Z,21.18
2018-05-03T13:12:23.706Z,21.78
2018-05-03T13:14:51.998Z,22.15
2018-05-03T13:17:20.407Z,21.59
2018-05-03T13:19:49.460Z,21.49
2018-05-03T13:22:17.773Z,21.79
2018-05-03T13:24:46.800Z,21.73
2018-05-03T13:27:15.112Z,21.85
2018-05-03T13:29:43.374Z,21.60
2018-05-03T13:32:11.945Z,21.24
2018-05-03T13:34:40.244Z,20.84
2018-05-03T13:37:08.500Z,20.47
2018-05-03T13:39:36.781Z,20.75
2018-05-03T13:42:05.082Z,20.93
2018-05-03T13:44:33.420Z,21.61
2018-05-03T13:47:01.679Z,21.35
2018-05-03T13:49:29.934Z,21.64
2018-05-03T13:51:59.001Z,21.41
2018-05-03T13:54:28.126Z,21.51
2018-05-03T13:56:57.189Z,21.39
2018-05-03T13:59:26.530Z,20.68
2018-05-03T14:01:54.813Z,20.69
2018-05-03T14:04:23.221Z,20.93
2018-05-03T14:06:51.497Z,21.08
2018-05-03T14:09:19.819Z,21.35
2018-05-03T14:11:48.118Z,21.37
2018-05-03T14:14:16.482Z,20.98
2018-05-03T14:16:44.765Z,20.41
2018-05-03T14:19:13.086Z,20.76
2018-05-03T14:21:41.371Z,20.48
2018-05-03T14:24:09.816Z,20.62
2018-05-03T14:26:38.064Z,20.62
2018-05-03T14:29:06.357Z,20.72
2018-05-03T14:31:34.644Z,20.89
2018-05-03T14:34:03.009Z,20.43
2018-05-03T14:36:31.272Z,20.29
2018-05-03T14:38:59.530Z,20.17
2018-05-03T14:41:28.762Z,20.20
2018-05-03T14:43:57.131Z,20.06
2018-05-03T14:46:25.401Z,20.16
2018-05-03T14:48:53.684Z,20.21
2018-05-03T14:51:21.973Z,20.11
2018-05-03T14:53:50.259Z,20.15
2018-05-03T14:56:18.542Z,20.22
2018-05-03T14:58:46.828Z,20.28
2018-05-03T15:01:15.255Z,20.25
2018-05-03T15:03:43.556Z,20.56
2018-05-03T15:06:11.831Z,20.72
2018-05-03T15:08:40.135Z,20.94
2018-05-03T15:11:08.595Z,21.39
2018-05-03T15:13:36.891Z,21.01
2018-05-03T15:16:05.171Z,20.85
2018-05-03T15:18:33.427Z,20.94
2018-05-03T15:21:01.686Z,21.08
2018-05-03T15:23:30.791Z,21.59
2018-05-03T15:25:59.049Z,21.82
2018-05-03T15:28:27.325Z,21.72
2018-05-03T15:30:55.605Z,21.47
2018-05-03T15:33:23.962Z,21.18
2018-05-03T15:35:52.250Z,20.90
2018-05-03T15:38:20.589Z,20.62
2018-05-03T15:40:49.621Z,20.52
2018-05-03T15:43:17.905Z,20.66
2018-05-03T15:45:46.204Z,20.46
2018-05-03T15:48:14.507Z,20.58
2018-05-03T15:50:43.527Z,20.64
2018-05-03T15:53:11.778Z,20.67
2018-05-03T15:55:40.116Z,20.61
2018-05-03T15:58:08.342Z,20.56
2018-05-03T16:00:36.642Z,20.55
2018-05-03T16:03:05.021Z,20.64
2018-05-03T16:05:33.398Z,20.81
2018-05-03T16:08:02.590Z,20.74
2018-05-03T16:10:30.938Z,21.19
2018-05-03T16:12:59.356Z,21.05
2018-05-03T16:15:27.639Z,20.95
2018-05-03T16:17:55.935Z,21.03
2018-05-03T16:20:24.223Z,21.20
2018-05-03T16:22:53.347Z,21.33
2018-05-03T16:25:21.635Z,21.29
2018-05-03T16:27:49.914Z,21.61
2018-05-03T16:30:18.291Z,21.76
2018-05-03T16:32:49.727Z,21.59
2018-05-03T16:35:18.010Z,21.16
2018-05-03T16:37:46.293Z,20.89
2018-05-03T16:40:14.572Z,20.98
2018-05-03T16:42:42.854Z,20.97
2018-05-03T16:45:11.140Z,20.58
2018-05-03T16:47:39.731Z,20.38
2018-05-03T16:50:07.989Z,20.03
2018-05-03T16:52:36.278Z,19.90
2018-05-03T16:55:04.543Z,19.76
2018-05-03T16:57:32.816Z,19.70
2018-05-03T17:00:01.087Z,19.71
2018-05-03T17:02:29.364Z,19.67
2018-05-03T17:04:57.662Z,19.50
2018-05-03T17:07:25.921Z,19.48
2018-05-03T17:09:54.585Z,19.40
2018-05-03T17:12:23.086Z,19.43
2018-05-03T17:14:51.648Z,19.36
2018-05-03T17:17:20.079Z,19.40
2018-05-03T17:19:48.873Z,19.13
2018-05-03T17:22:17.977Z,19.00
2018-05-03T17:24:47.076Z,19.17
2018-05-03T17:27:15.566Z,19.15
2018-05-03T17:29:43.975Z,19.21
2018-05-03T17:32:12.637Z,19.27
2018-05-03T17:34:41.005Z,19.26
2018-05-03T17:37:09.493Z,19.28
2018-05-03T17:39:37.934Z,19.11
2018-05-03T17:42:07.300Z,19.11
2018-05-03T17:44:35.881Z,19.11
2018-05-03T17:47:04.252Z,19.10
2018-05-03T17:49:33.170Z,19.06
2018-05-03T17:52:02.308Z,19.10
2018-05-03T17:54:30.835Z,19.02
2018-05-03T17:56:59.461Z,19.03
2018-05-03T17:59:28.174Z,18.98
2018-05-03T18:01:56.658Z,18.89
2018-05-03T18:04:25.244Z,18.97
2018-05-03T18:06:53.748Z,18.84
2018-05-03T18:09:22.633Z,18.85
2018-05-03T18:11:51.236Z,18.74
2018-05-03T18:14:20.025Z,18.68
2018-05-03T18:16:48.391Z,18.66
2018-05-03T18:19:17.004Z,18.51
2018-05-03T18:21:45.441Z,18.50
2018-05-03T18:24:14.231Z,18.44
2018-05-03T18:26:42.738Z,18.39
2018-05-03T18:29:12.204Z,18.29
2018-05-03T18:31:40.824Z,18.22
2018-05-03T18:34:12.665Z,18.17
2018-05-03T18:36:41.383Z,18.18
2018-05-03T18:39:10.740Z,18.14
2018-05-03T18:41:39.444Z,18.02
2018-05-03T18:44:08.041Z,17.96
2018-05-03T18:46:37.194Z,17.89
2018-05-03T18:49:06.051Z,17.83
2018-05-03T18:51:34.716Z,17.79
2018-05-03T18:54:03.291Z,17.73
2018-05-03T18:56:32.138Z,17.70
2018-05-03T18:59:00.909Z,17.62
2018-05-03T19:01:29.720Z,17.54
2018-05-03T19:03:58.190Z,17.51
2018-05-03T19:06:26.897Z,17.52
2018-05-03T19:08:55.446Z,17.37
2018-05-03T19:11:24.087Z,17.30
2018-05-03T19:13:53.845Z,17.44
2018-05-03T19:16:22.328Z,17.36
2018-05-03T19:18:50.745Z,17.31
2018-05-03T19:21:19.377Z,17.23
2018-05-03T19:23:47.894Z,17.18
2018-05-03T19:26:16.595Z,17.21
2018-05-03T19:28:45.007Z,17.06
2018-05-03T19:31:13.510Z,17.10
2018-05-03T19:33:41.947Z,17.05
2018-05-03T19:36:11.121Z,17.05
2018-05-03T19:38:39.529Z,17.05
2018-05-03T19:41:07.916Z,17.00
2018-05-03T19:43:36.424Z,17.01
2018-05-03T19:46:05.592Z,16.94
2018-05-03T19:48:34.064Z,16.87
2018-05-03T19:51:03.056Z,16.86
2018-05-03T19:53:31.624Z,16.95
2018-05-03T19:56:00.627Z,16.94
2018-05-03T19:58:29.096Z,16.91
2018-05-03T20:00:58.350Z,16.81
2018-05-03T20:03:27.298Z,16.81
2018-05-03T20:05:55.805Z,16.83
2018-05-03T20:08:24.176Z,16.80
2018-05-03T20:10:52.365Z,16.77
2018-05-03T20:13:20.668Z,16.75
2018-05-03T20:15:49.044Z,16.76
2018-05-03T20:18:17.355Z,16.74
2018-05-03T20:20:46.377Z,16.78
2018-05-03T20:23:14.689Z,16.84
2018-05-03T20:25:42.950Z,16.83
2018-05-03T20:28:11.241Z,16.80
2018-05-03T20:30:39.514Z,16.86
2018-05-03T20:33:07.812Z,16.85
2018-05-03T20:35:36.852Z,16.86
2018-05-03T20:38:05.141Z,16.87
2018-05-03T20:40:33.401Z,16.89
2018-05-03T20:43:01.680Z,16.95
2018-05-03T20:45:29.977Z,16.92
2018-05-03T20:47:58.687Z,16.92
2018-05-03T20:50:27.749Z,16.96
2018-05-03T20:52:56.055Z,16.88
2018-05-03T20:55:25.228Z,16.86
2018-05-03T20:57:53.501Z,16.87
2018-05-03T21:00:21.787Z,16.89
2018-05-03T21:02:50.057Z,16.87
2018-05-03T21:05:18.446Z,16.83
2018-05-03T21:07:46.720Z,16.77
2018-05-03T21:10:15.784Z,16.82
2018-05-03T21:12:44.181Z,16.84
2018-05-03T21:15:12.375Z,16.79
2018-05-03T21:17:41.423Z,16.77
2018-05-03T21:20:09.791Z,16.79
2018-05-03T21:22:38.058Z,16.77
2018-05-03T21:25:06.351Z,16.72
2018-05-03T21:27:34.681Z,16.76
2018-05-03T21:30:04.056Z,16.71
2018-05-03T21:32:32.321Z,16.65
2018-05-03T21:35:00.624Z,16.71
2018-05-03T21:37:28.906Z,16.62
2018-05-03T21:39:57.969Z,16.63
2018-05-03T21:42:26.249Z,16.61
2018-05-03T21:44:54.511Z,16.58
2018-05-03T21:47:22.832Z,16.56
2018-05-03T21:49:51.869Z,16.50
2018-05-03T21:52:20.180Z,16.44
2018-05-03T21:54:48.468Z,16.41
2018-05-03T21:57:17.607Z,16.39
2018-05-03T21:59:45.879Z,16.34
2018-05-03T22:02:14.187Z,16.23
2018-05-03T22:04:42.441Z,16.20
2018-05-03T22:07:10.719Z,16.21
2018-05-03T22:09:38.999Z,16.19
2018-05-03T22:12:07.608Z,16.25
2018-05-03T22:14:35.894Z,16.40
2018-05-03T22:17:04.961Z,16.20
2018-05-03T22:19:34.044Z,16.14
2018-05-03T22:22:02.318Z,16.17
2018-05-03T22:24:30.596Z,16.10
2018-05-03T22:26:58.875Z,16.14
2018-05-03T22:29:27.187Z,16.00
2018-05-03T22:31:56.208Z,16.00
2018-05-03T22:34:24.463Z,15.98
2018-05-03T22:36:52.926Z,15.89
2018-05-03T22:39:22.015Z,15.94
2018-05-03T22:41:51.096Z,15.93
2018-05-03T22:44:19.385Z,15.82
2018-05-03T22:46:47.643Z,15.76
2018-05-03T22:49:15.909Z,15.79
2018-05-03T22:51:44.206Z,15.56
2018-05-03T22:54:13.240Z,15.51
2018-05-03T22:56:41.526Z,15.66
2018-05-03T22:59:09.792Z,15.59
2018-05-03T23:01:38.069Z,15.58
2018-05-03T23:04:06.326Z,15.63
2018-05-03T23:06:34.625Z,15.58
2018-05-03T23:09:02.914Z,15.49
2018-05-03T23:11:31.198Z,15.52
2018-05-03T23:13:59.462Z,15.51
2018-05-03T23:16:27.744Z,15.49
2018-05-03T23:18:56.003Z,15.54
2018-05-03T23:21:24.285Z,15.51
2018-05-03T23:23:52.579Z,15.50
2018-05-03T23:26:20.851Z,15.32
2018-05-03T23:28:49.137Z,15.31
2018-05-03T23:31:18.178Z,15.27
2018-05-03T23:33:46.466Z,15.20
2018-05-03T23:36:14.883Z,15.16
2018-05-03T23:38:43.206Z,15.11
2018-05-03T23:41:11.491Z,15.15
2018-05-03T23:43:39.791Z,15.18
2018-05-03T23:46:08.078Z,15.20
2018-05-03T23:48:36.345Z,15.18
2018-05-03T23:51:04.630Z,15.20
2018-05-03T23:53:32.914Z,15.20
2018-05-03T23:56:01.200Z,15.24
2018-05-03T23:58:29.461Z,15.28
